Time;durP1;ratioP1;P1;durP2;ratioP2;P2;SDS_P1;SDS_P2;PMS_P1;PMS_P2;Temp;Humidity;BMP_temperature;BMP_pressure;BME280_temperature;BME280_humidity;BME280_pressure;Samples;Min_cycle;Max_cycle;Signal;HPM_P1;HPM_P2
2022/04/22 00:00:05;;;;;;;9.45;7.45;;;;;;;8.65;76.48;94638.16;5121351;27;20049;-69
2022/04/22 00:02:31;;;;;;;9.63;7.85;;;;;;;8.67;76.03;94651.81;5104210;28;20032;-69
2022/04/22 00:04:56;;;;;;;12.48;8.38;;;;;;;8.61;76.10;94641.94;5095552;28;20519;-69
2022/04/22 00:07:21;;;;;;;13.30;9.15;;;;;;;8.64;76.13;94654.63;5115238;27;20027;-69
2022/04/22 00:09:47;;;;;;;12.02;8.45;;;;;;;8.59;76.18;94649.00;5121281;27;20036;-69
2022/04/22 00:12:12;;;;;;;11.77;8.95;;;;;;;8.62;76.10;94660.88;5117761;27;20051;-69
2022/04/22 00:14:38;;;;;;;13.40;9.15;;;;;;;8.57;76.30;94650.88;5109080;27;20065;-69
2022/04/22 00:17:03;;;;;;;12.57;8.40;;;;;;;8.58;75.90;94651.69;5130174;27;20023;-69
2022/04/22 00:19:29;;;;;;;10.50;8.30;;;;;;;8.60;75.91;94650.63;5132716;27;20112;-69
2022/04/22 00:21:55;;;;;;;15.65;9.35;;;;;;;8.57;76.13;94634.50;5111834;27;20417;-70
2022/04/22 00:24:20;;;;;;;12.63;8.80;;;;;;;8.55;75.67;94620.84;5095119;28;20031;-70
2022/04/22 00:26:46;;;;;;;10.52;7.80;;;;;;;8.57;75.69;94618.97;5111962;28;20106;-69
2022/04/22 00:29:11;;;;;;;12.65;8.48;;;;;;;8.50;75.81;94614.28;5078023;28;20039;-69
2022/04/22 00:31:37;;;;;;;10.55;7.65;;;;;;;8.54;75.69;94608.88;5111937;28;20031;-69
2022/04/22 00:34:03;;;;;;;11.82;8.15;;;;;;;8.45;75.72;94600.88;5115049;27;20429;-69
2022/04/22 00:36:28;;;;;;;10.55;7.43;;;;;;;8.41;75.58;94612.41;5115238;27;20108;-69
2022/04/22 00:38:53;;;;;;;10.63;7.53;;;;;;;8.48;75.54;94618.75;5115076;27;20020;-69
2022/04/22 00:41:19;;;;;;;10.90;7.75;;;;;;;8.44;75.06;94612.19;5132099;27;20035;-69
2022/04/22 00:43:46;;;;;;;12.23;8.10;;;;;;;8.47;75.18;94619.69;5131863;27;20019;-69
2022/04/22 00:46:11;;;;;;;14.40;7.97;;;;;;;8.51;74.73;94622.88;5113141;27;20035;-69
2022/04/22 00:48:37;;;;;;;13.43;8.68;;;;;;;8.45;75.04;94616.41;5112319;27;20034;-69
2022/04/22 00:51:06;;;;;;;11.40;8.30;;;;;;;8.46;74.88;94604.28;5120833;27;20031;-69
2022/04/22 00:53:33;;;;;;;13.30;8.73;;;;;;;8.39;74.70;94606.53;5103422;27;20433;-70
2022/04/22 00:55:59;;;;;;;12.73;8.98;;;;;;;8.43;74.67;94601.94;5104132;28;20031;-69
2022/04/22 00:58:24;;;;;;;12.60;8.38;;;;;;;8.42;74.61;94600.28;5100754;28;20036;-69
2022/04/22 01:00:50;;;;;;;11.73;8.38;;;;;;;8.42;74.52;94608.88;5100599;28;20031;-70
2022/04/22 01:03:15;;;;;;;13.02;8.00;;;;;;;8.32;74.36;94582.00;5112164;27;20035;-69
2022/04/22 01:11:09;;;;;;;13.45;8.88;;;;;;;8.36;73.61;94565.31;5104285;28;20170;-69
2022/04/22 01:13:35;;;;;;;11.80;8.60;;;;;;;8.37;73.80;94582.50;5127160;27;20043;-70
2022/04/22 01:16:00;;;;;;;11.07;8.65;;;;;;;8.38;73.61;94584.13;5106134;28;20032;-70
2022/04/22 01:18:26;;;;;;;11.88;8.43;;;;;;;8.39;73.70;94583.22;5094247;28;20043;-69
2022/04/22 01:20:51;;;;;;;14.45;8.73;;;;;;;8.34;73.71;94581.91;5113175;27;20034;-70
2022/04/22 01:23:17;;;;;;;10.98;8.35;;;;;;;8.31;73.69;94557.09;5127404;27;20035;-69
2022/04/22 01:25:42;;;;;;;12.30;8.43;;;;;;;8.30;73.86;94550.25;5128972;27;20458;-69
2022/04/22 01:28:09;;;;;;;13.27;8.23;;;;;;;8.35;73.66;94529.19;5120332;27;20043;-69
2022/04/22 01:30:35;;;;;;;11.27;7.88;;;;;;;8.38;73.47;94514.22;5118962;27;20020;-69
2022/04/22 01:33:01;;;;;;;10.57;7.28;;;;;;;8.44;73.51;94520.72;5096795;27;20416;-69
2022/04/22 01:35:26;;;;;;;8.70;7.20;;;;;;;8.46;73.15;94517.06;5094562;28;20088;-70
2022/04/22 01:37:52;;;;;;;11.80;7.10;;;;;;;8.47;72.75;94510.16;5111628;27;20391;-69
2022/04/22 01:40:17;;;;;;;9.85;7.47;;;;;;;8.45;73.04;94499.09;5127213;27;20414;-69
2022/04/22 01:42:43;;;;;;;10.73;7.55;;;;;;;8.45;73.09;94504.28;5114292;27;20106;-69
2022/04/22 01:45:09;;;;;;;11.30;7.88;;;;;;;8.47;72.62;94503.22;5118512;27;20031;-69
2022/04/22 01:47:34;;;;;;;11.95;7.50;;;;;;;8.46;72.51;94511.91;5110310;28;20050;-69
2022/04/22 01:50:00;;;;;;;9.15;6.60;;;;;;;8.38;72.78;94524.59;5110506;28;20039;-69
2022/04/22 01:52:25;;;;;;;12.95;7.30;;;;;;;8.40;72.70;94520.16;5120592;27;20050;-69
2022/04/22 01:54:51;;;;;;;10.00;7.22;;;;;;;8.40;72.34;94532.28;5106071;28;20044;-69
2022/04/22 01:57:17;;;;;;;9.55;7.22;;;;;;;8.43;72.26;94530.25;5125496;27;20035;-69
2022/04/22 01:59:44;;;;;;;12.80;7.43;;;;;;;8.43;72.03;94529.44;5130331;27;20055;-69
2022/04/22 02:02:10;;;;;;;11.25;7.35;;;;;;;8.43;71.99;94525.09;5116481;27;20465;-69
2022/04/22 02:04:35;;;;;;;8.90;7.05;;;;;;;8.35;72.26;94524.84;5115212;27;20025;-69
2022/04/22 02:07:01;;;;;;;12.75;7.38;;;;;;;8.42;72.05;94538.97;5130658;27;20027;-70
2022/04/22 02:09:26;;;;;;;11.52;7.25;;;;;;;8.46;72.18;94542.97;5128861;27;20031;-69
2022/04/22 02:11:52;;;;;;;12.43;8.02;;;;;;;8.47;72.49;94552.41;5092328;28;20056;-70
2022/04/22 02:14:17;;;;;;;12.10;8.05;;;;;;;8.48;73.11;94559.19;5112860;28;20377;-69
2022/04/22 02:16:43;;;;;;;13.75;10.23;;;;;;;8.47;73.05;94567.94;5127020;27;20422;-69
2022/04/22 02:19:09;;;;;;;12.02;8.10;;;;;;;8.43;72.62;94574.28;5123856;28;20027;-69
2022/04/22 02:21:34;;;;;;;12.68;8.43;;;;;;;8.43;72.14;94566.50;5112663;28;20035;-69
2022/04/22 02:23:59;;;;;;;9.45;7.65;;;;;;;8.47;72.66;94573.09;5109788;28;20035;-69
2022/04/22 02:26:25;;;;;;;12.15;7.60;;;;;;;8.49;72.09;94571.19;5119715;28;20032;-69
2022/04/22 02:28:51;;;;;;;11.90;7.22;;;;;;;8.49;72.53;94565.19;5120529;28;20027;-69
2022/04/22 02:31:16;;;;;;;13.30;7.78;;;;;;;8.42;72.10;94558.88;5130939;27;20076;-69
2022/04/22 02:33:42;;;;;;;8.80;7.10;;;;;;;8.40;71.76;94538.28;5113169;27;20494;-69
2022/04/22 02:36:07;;;;;;;8.60;7.10;;;;;;;8.45;71.65;94537.91;5107000;28;20477;-69
2022/04/22 02:38:33;;;;;;;12.65;7.60;;;;;;;8.45;71.61;94540.50;5124690;28;20035;-69
2022/04/22 02:46:28;;;;;;;9.95;7.38;;;;;;;8.31;72.60;94536.38;5111027;28;20042;-69
2022/04/22 02:48:56;;;;;;;10.88;6.97;;;;;;;8.28;72.74;94528.88;5111748;28;20036;-70
2022/04/22 02:51:21;;;;;;;10.32;7.45;;;;;;;8.28;72.67;94536.63;5096229;28;20034;-69
2022/04/22 02:53:47;;;;;;;10.55;7.32;;;;;;;8.32;72.21;94532.84;5131455;27;20114;-69
2022/04/22 02:56:12;;;;;;;9.68;7.40;;;;;;;8.34;72.27;94524.97;5093724;28;20020;-69
2022/04/22 02:58:39;;;;;;;11.52;8.23;;;;;;;8.35;72.13;94539.53;5127462;28;20031;-69
2022/04/22 03:01:04;;;;;;;10.45;7.38;;;;;;;8.33;71.62;94539.69;5118554;28;20056;-69
2022/04/22 03:03:30;;;;;;;9.38;7.50;;;;;;;8.28;71.92;94531.44;5125495;28;20018;-70
2022/04/22 03:05:55;;;;;;;11.55;8.27;;;;;;;8.32;71.95;94532.03;5114900;28;20024;-69
2022/04/22 03:08:21;;;;;;;10.77;8.23;;;;;;;8.28;71.52;94528.88;5130184;28;20394;-70
2022/04/22 03:10:48;;;;;;;10.95;8.30;;;;;;;8.36;71.44;94533.41;5111001;28;20102;-69
2022/04/22 03:13:15;;;;;;;10.45;8.25;;;;;;;8.29;71.41;94526.13;5116602;27;20036;-69
2022/04/22 03:15:41;;;;;;;12.50;8.65;;;;;;;8.30;71.30;94534.72;5129280;27;20015;-70
2022/04/22 03:18:07;;;;;;;10.27;7.80;;;;;;;8.35;71.33;94548.13;5113255;28;20513;-70
2022/04/22 03:20:33;;;;;;;10.43;8.10;;;;;;;8.34;71.75;94548.25;5126550;27;20023;-69
2022/04/22 03:22:58;;;;;;;13.40;9.15;;;;;;;8.40;70.68;94556.38;5133694;27;20042;-70
2022/04/22 03:25:24;;;;;;;11.38;8.98;;;;;;;8.34;70.47;94551.66;5126041;27;20032;-70
2022/04/22 03:27:50;;;;;;;11.73;8.55;;;;;;;8.45;70.05;94549.09;5118100;27;20035;-70
2022/04/22 03:30:16;;;;;;;14.02;8.57;;;;;;;8.50;69.98;94556.50;5129666;27;20035;-70
2022/04/22 03:32:41;;;;;;;13.73;8.98;;;;;;;8.48;70.19;94555.78;5113629;27;20031;-70
2022/04/22 03:35:07;;;;;;;13.30;8.93;;;;;;;8.40;71.36;94542.63;5128077;27;20036;-70
2022/04/22 03:37:32;;;;;;;10.75;8.50;;;;;;;8.46;71.79;94555.91;5096089;28;20031;-70
2022/04/22 03:39:58;;;;;;;17.55;11.23;;;;;;;8.51;71.51;94565.91;5119317;27;20035;-70
2022/04/22 03:42:23;;;;;;;13.18;9.57;;;;;;;8.54;72.10;94568.25;5114724;27;20027;-70
2022/04/22 03:44:48;;;;;;;14.73;10.80;;;;;;;8.53;72.35;94570.97;5116705;27;20031;-70
2022/04/22 03:47:14;;;;;;;17.73;14.63;;;;;;;8.52;71.88;94564.13;5133191;27;20035;-70
2022/04/22 03:49:39;;;;;;;16.85;13.15;;;;;;;8.49;72.76;94576.38;5109008;28;20110;-70
2022/04/22 03:52:05;;;;;;;12.30;9.75;;;;;;;8.40;72.89;94540.84;5117149;27;20015;-70
2022/04/22 03:54:31;;;;;;;14.00;10.57;;;;;;;8.50;72.69;94572.84;5109821;28;20035;-70
2022/04/22 03:59:40;;;;;;;15.77;10.40;;;;;;;8.37;73.38;94568.72;5119748;27;20034;-70
2022/04/22 04:02:07;;;;;;;13.00;9.43;;;;;;;8.36;72.83;94583.44;5131337;27;20408;-70
2022/04/22 04:04:33;;;;;;;11.85;9.30;;;;;;;8.40;72.37;94587.44;5131591;27;20027;-70
2022/04/22 04:06:58;;;;;;;15.80;9.60;;;;;;;8.42;72.09;94595.94;5122116;27;20034;-70
2022/04/22 04:17:38;;;;;;;10.75;8.40;;;;;;;8.37;74.32;94572.13;5134397;27;20038;-70
2022/04/22 04:25:32;;;;;;;13.02;8.88;;;;;;;8.36;75.83;94575.69;5114466;27;20047;-70
2022/04/22 04:27:57;;;;;;;14.90;9.38;;;;;;;8.35;76.04;94568.00;5113605;27;20039;-70
2022/04/22 04:30:23;;;;;;;13.90;10.05;;;;;;;8.35;75.03;94561.06;5111243;28;20077;-70
2022/04/22 04:32:49;;;;;;;11.75;9.18;;;;;;;8.37;74.23;94560.97;5112018;28;20031;-70
2022/04/22 04:35:14;;;;;;;12.55;9.82;;;;;;;8.38;74.06;94549.66;5080214;27;20048;-70
2022/04/22 04:37:43;;;;;;;16.42;10.77;;;;;;;8.33;74.77;94554.38;5091573;28;20081;-70
2022/04/22 04:40:09;;;;;;;12.95;9.40;;;;;;;8.29;75.44;94546.84;5078922;28;20040;-70
2022/04/22 04:42:35;;;;;;;14.25;9.60;;;;;;;8.34;75.70;94549.09;5112845;27;20413;-70
2022/04/22 04:45:01;;;;;;;14.73;9.80;;;;;;;8.36;75.51;94544.63;5129092;27;20562;-70
2022/04/22 04:47:26;;;;;;;13.30;9.88;;;;;;;8.30;75.42;94545.06;5132011;27;20035;-70
2022/04/22 04:49:51;;;;;;;13.85;9.98;;;;;;;8.25;76.26;94553.22;5115978;27;20129;-70
2022/04/22 04:52:17;;;;;;;15.45;10.43;;;;;;;8.29;75.71;94548.63;5096339;27;20469;-70
2022/04/22 04:54:42;;;;;;;13.98;10.10;;;;;;;8.28;75.06;94544.38;5130263;27;20038;-70
2022/04/22 04:57:08;;;;;;;16.02;11.50;;;;;;;8.27;75.26;94540.97;5113240;27;20038;-69
2022/04/22 04:59:34;;;;;;;13.38;10.82;;;;;;;8.25;76.21;94555.81;5112853;27;20065;-69
2022/04/22 05:02:00;;;;;;;15.60;11.02;;;;;;;8.22;75.36;94548.28;5098265;28;20031;-70
2022/04/22 05:04:25;;;;;;;13.10;10.15;;;;;;;8.30;74.92;94550.25;5110691;28;20030;-70
2022/04/22 05:06:50;;;;;;;13.68;10.57;;;;;;;8.31;74.88;94545.91;5112509;28;20031;-70
2022/04/22 05:09:16;;;;;;;13.93;10.52;;;;;;;8.37;74.83;94545.44;5112910;27;20020;-70
2022/04/22 05:11:41;;;;;;;14.88;10.75;;;;;;;8.39;74.52;94534.06;5131439;27;20042;-69
2022/04/22 05:14:07;;;;;;;16.35;10.70;;;;;;;8.34;75.61;94510.25;5132220;27;20034;-70
2022/04/22 05:16:33;;;;;;;14.65;10.73;;;;;;;8.39;76.23;94515.94;5120963;27;20054;-70
2022/04/22 05:18:58;;;;;;;16.48;10.82;;;;;;;8.37;75.88;94512.59;5102052;27;20534;-70
2022/04/22 05:21:24;;;;;;;14.82;9.98;;;;;;;8.24;75.60;94497.19;5102089;28;20110;-70
2022/04/22 05:23:49;;;;;;;15.10;10.70;;;;;;;8.34;73.32;94499.09;5103181;27;20035;-70
2022/04/22 05:26:14;;;;;;;16.00;9.68;;;;;;;8.40;71.84;94494.28;5113068;27;20463;-70
2022/04/22 05:28:40;;;;;;;14.43;10.52;;;;;;;8.49;70.73;94482.34;5115518;27;20100;-70
2022/04/22 05:33:51;;;;;;;15.68;11.15;;;;;;;8.34;72.87;94437.78;5113630;27;20128;-70
2022/04/22 05:36:18;;;;;;;12.88;9.98;;;;;;;8.52;71.92;94437.28;5112555;27;20019;-70
2022/04/22 05:38:43;;;;;;;12.27;9.10;;;;;;;8.49;71.74;94431.41;5097522;27;20031;-70
2022/04/22 05:41:08;;;;;;;13.55;10.13;;;;;;;8.58;70.27;94419.50;5120822;27;20020;-70
2022/04/22 05:43:34;;;;;;;13.68;9.82;;;;;;;8.56;70.81;94387.72;5129688;27;20035;-70
2022/04/22 05:45:59;;;;;;;13.93;9.55;;;;;;;8.63;73.62;94365.53;5112337;27;20095;-70
2022/04/22 05:48:26;;;;;;;19.52;12.52;;;;;;;8.60;73.35;94368.41;5116599;27;20031;-70
2022/04/22 05:50:52;;;;;;;12.80;9.07;;;;;;;8.59;74.45;94355.59;5111414;27;20023;-70
2022/04/22 05:53:17;;;;;;;14.70;9.75;;;;;;;8.66;74.85;94365.31;5111503;27;20034;-70
2022/04/22 05:55:43;;;;;;;12.63;9.63;;;;;;;8.72;74.52;94361.41;5125308;27;20427;-70
2022/04/22 05:58:09;;;;;;;14.52;9.27;;;;;;;8.77;74.62;94369.59;5078824;27;20054;-70
2022/04/22 06:00:34;;;;;;;15.20;9.35;;;;;;;8.82;71.28;94369.22;5108370;27;20487;-70
2022/04/22 06:03:00;;;;;;;14.25;10.00;;;;;;;8.90;71.44;94354.69;5095764;27;20042;-70
2022/04/22 06:05:25;;;;;;;16.17;11.40;;;;;;;8.94;70.93;94350.91;5112707;27;20092;-70
2022/04/22 06:10:31;;;;;;;12.77;9.38;;;;;;;8.88;70.21;94338.44;5127230;27;20032;-70
2022/04/22 06:10:37;;;;;;;14.07;9.90;;;;;;;8.83;69.69;94337.19;5113908;27;20041;-70
2022/04/22 06:13:03;;;;;;;13.43;9.45;;;;;;;8.92;68.98;94339.84;5128109;27;20047;-70
2022/04/22 06:15:28;;;;;;;13.25;9.77;;;;;;;8.87;68.98;94341.19;5111299;27;20151;-70
2022/04/22 06:17:54;;;;;;;14.05;8.93;;;;;;;8.93;68.08;94333.69;5100494;28;20036;-70
2022/04/22 06:20:19;;;;;;;12.82;9.38;;;;;;;9.00;68.03;94336.63;5082878;28;20031;-70
2022/04/22 06:22:45;;;;;;;13.40;9.13;;;;;;;8.95;67.42;94342.16;5120349;28;20039;-70
2022/04/22 06:25:11;;;;;;;12.15;8.98;;;;;;;9.03;67.51;94346.72;5114853;28;20035;-70
2022/04/22 06:27:38;;;;;;;12.52;9.00;;;;;;;9.10;66.62;94344.41;5079820;28;20473;-70
2022/04/22 06:30:14;;;;;;;14.43;9.32;;;;;;;9.12;66.91;94365.84;5126348;28;20062;-71
2022/04/22 06:32:41;;;;;;;12.40;8.65;;;;;;;9.16;67.16;94365.47;5118354;28;20055;-70
2022/04/22 06:35:07;;;;;;;11.30;8.95;;;;;;;9.26;67.75;94352.53;5119969;27;20031;-70
2022/04/22 06:37:36;;;;;;;12.52;8.20;;;;;;;9.35;67.15;94362.13;5109999;28;20087;-70
2022/04/22 06:45:49;;;;;;;11.70;8.32;;;;;;;9.56;65.84;94345.69;5120004;27;20066;-77
2022/04/22 06:48:31;;;;;;;10.82;8.10;;;;;;;9.62;66.52;94332.19;5134127;27;20031;-70
2022/04/22 06:50:59;;;;;;;10.43;8.20;;;;;;;9.77;65.79;94345.59;5133726;27;20574;-71
2022/04/22 06:53:25;;;;;;;11.90;8.48;;;;;;;9.72;65.58;94343.44;5093921;27;20039;-70
2022/04/22 06:55:52;;;;;;;11.38;8.63;;;;;;;9.72;65.83;94353.81;5113526;27;20503;-71
2022/04/22 06:58:18;;;;;;;12.13;8.23;;;;;;;9.62;64.93;94327.81;5112441;27;20091;-72
2022/04/22 07:00:44;;;;;;;11.15;8.63;;;;;;;9.84;65.57;94346.72;5111225;27;20522;-70
2022/04/22 07:03:10;;;;;;;12.40;8.85;;;;;;;9.90;65.30;94332.38;5132090;27;20033;-70
2022/04/22 07:05:37;;;;;;;11.40;8.10;;;;;;;10.14;63.95;94332.81;5116371;27;20479;-75
2022/04/22 07:08:03;;;;;;;10.32;7.97;;;;;;;10.24;62.99;94327.63;5115875;27;20070;-70
2022/04/22 07:25:06;;;;;;;9.05;7.50;;;;;;;11.73;59.61;94334.75;5175975;27;20463;-70
2022/04/22 07:27:36;;;;;;;7.90;6.80;;;;;;;11.66;59.51;94329.31;5149142;27;20043;-70
2022/04/22 07:30:08;;;;;;;8.32;6.50;;;;;;;11.83;59.68;94328.53;5131585;27;20152;-68
2022/04/22 07:32:37;;;;;;;9.05;6.68;;;;;;;11.96;60.07;94324.81;5137814;27;20030;-68
2022/04/22 07:35:04;;;;;;;10.77;8.15;;;;;;;12.16;57.66;94335.91;5129582;27;20114;-69
2022/04/22 07:37:30;;;;;;;8.00;7.07;;;;;;;12.31;58.06;94326.59;5136820;27;20049;-69
2022/04/22 07:39:56;;;;;;;8.43;6.22;;;;;;;12.40;58.01;94310.09;5147060;27;20102;-69
2022/04/22 07:42:21;;;;;;;8.48;6.60;;;;;;;12.62;57.34;94313.16;5146855;27;20042;-69
2022/04/22 07:47:33;;;;;;;8.52;6.43;;;;;;;12.92;56.45;94304.91;5148514;27;20457;-68
2022/04/22 07:49:58;;;;;;;9.23;5.53;;;;;;;13.03;55.86;94296.00;5149306;27;20051;-68
2022/04/22 07:52:24;;;;;;;8.63;5.78;;;;;;;13.22;55.22;94294.97;5147824;27;20026;-69
2022/04/22 07:54:49;;;;;;;8.43;5.88;;;;;;;13.37;54.83;94298.69;5147924;27;20027;-69
2022/04/22 07:57:15;;;;;;;6.57;5.53;;;;;;;13.49;54.75;94295.78;5147885;27;20023;-68
2022/04/22 07:59:41;;;;;;;9.48;6.60;;;;;;;13.61;54.95;94302.34;5149060;27;20022;-69
2022/04/22 08:02:06;;;;;;;8.23;6.65;;;;;;;13.78;54.63;94296.19;5147770;27;20025;-69
2022/04/22 08:04:32;;;;;;;9.18;5.90;;;;;;;14.00;53.83;94309.63;5147936;27;20041;-69
2022/04/22 08:06:57;;;;;;;7.63;6.00;;;;;;;14.11;53.13;94304.09;5149087;27;20027;-69
2022/04/22 08:09:23;;;;;;;9.82;6.63;;;;;;;14.28;53.40;94318.00;5130421;27;20034;-68
2022/04/22 08:11:48;;;;;;;9.23;8.13;;;;;;;14.50;52.89;94322.59;5149188;27;20019;-69
2022/04/22 08:14:14;;;;;;;10.50;6.10;;;;;;;14.62;52.70;94320.50;5149185;27;20031;-69
2022/04/22 08:16:39;;;;;;;7.72;5.53;;;;;;;14.70;51.09;94312.66;5148806;27;20023;-69
2022/04/22 08:19:05;;;;;;;6.70;5.72;;;;;;;14.71;50.02;94319.53;5130454;27;20039;-69
2022/04/22 08:21:33;;;;;;;8.07;5.75;;;;;;;14.73;50.22;94322.78;5147503;27;20041;-69
2022/04/22 08:24:00;;;;;;;6.50;5.57;;;;;;;14.73;51.22;94314.13;5145903;27;20063;-69
2022/04/22 08:26:25;;;;;;;8.07;5.47;;;;;;;14.63;51.12;94316.94;5133319;27;20027;-69
2022/04/22 08:28:51;;;;;;;7.15;5.53;;;;;;;14.82;50.43;94315.78;5133720;27;20034;-69
2022/04/22 08:31:17;;;;;;;7.18;5.20;;;;;;;14.80;49.97;94312.50;5134777;27;20473;-69
2022/04/22 08:33:45;;;;;;;7.80;5.25;;;;;;;14.69;49.57;94305.00;5133488;27;20070;-69
2022/04/22 08:36:11;;;;;;;9.05;5.13;;;;;;;14.80;49.67;94309.88;5133454;27;20024;-69
2022/04/22 08:38:37;;;;;;;8.73;5.10;;;;;;;14.89;49.53;94308.06;5133349;27;20061;-69
2022/04/22 08:41:02;;;;;;;7.20;5.60;;;;;;;15.00;50.56;94292.03;5134576;27;20027;-69
2022/04/22 08:43:28;;;;;;;8.18;4.93;;;;;;;15.11;49.84;94294.31;5116090;27;20416;-69
2022/04/22 08:45:54;;;;;;;7.82;5.53;;;;;;;15.27;50.49;94290.03;5116154;27;20023;-69
2022/04/22 08:51:03;;;;;;;7.65;5.65;;;;;;;15.47;50.06;94278.16;5133338;27;20034;-69
2022/04/22 08:53:29;;;;;;;9.82;5.32;;;;;;;15.65;49.69;94270.88;5133007;27;20031;-69
2022/04/22 08:55:57;;;;;;;8.38;5.60;;;;;;;15.72;49.67;94270.25;5132064;27;20039;-69
2022/04/22 08:58:24;;;;;;;8.50;5.72;;;;;;;15.90;50.49;94254.25;5114998;27;20054;-69
2022/04/22 09:00:49;;;;;;;9.30;5.60;;;;;;;16.01;48.50;94266.94;5131958;27;20055;-69
2022/04/22 09:03:15;;;;;;;8.85;5.63;;;;;;;16.11;48.16;94253.66;5132897;27;20434;-69
2022/04/22 09:05:41;;;;;;;7.97;5.43;;;;;;;16.24;49.14;94243.38;5132806;27;20023;-69
2022/04/22 09:08:06;;;;;;;8.35;5.03;;;;;;;16.28;48.25;94229.75;5118212;27;20035;-69
2022/04/22 09:10:34;;;;;;;9.07;5.70;;;;;;;16.34;47.04;94232.66;5119681;27;20496;-69
2022/04/22 09:13:00;;;;;;;10.13;5.50;;;;;;;16.37;47.90;94240.97;5097159;27;20036;-70
2022/04/22 09:15:27;;;;;;;9.35;5.05;;;;;;;16.14;46.85;94174.69;5106658;28;20428;-77
2022/04/22 09:17:57;;;;;;;10.98;6.50;;;;;;;16.53;47.11;94217.25;5088895;27;20070;-69
2022/04/22 09:20:27;;;;;;;6.47;4.53;;;;;;;16.66;45.85;94252.53;5123857;27;20098;-72
2022/04/22 09:22:52;;;;;;;10.13;5.22;;;;;;;16.34;45.04;94233.47;5132203;27;20051;-71
2022/04/22 09:25:25;;;;;;;9.57;5.10;;;;;;;16.28;45.80;94239.44;5116621;27;20065;-69
2022/04/22 09:27:51;;;;;;;11.98;5.18;;;;;;;16.23;45.57;94239.94;5094781;28;20032;-70
2022/04/22 09:30:16;;;;;;;8.90;4.88;;;;;;;16.14;45.70;94227.91;5116343;27;20027;-69
2022/04/22 09:32:44;;;;;;;9.63;4.93;;;;;;;16.19;47.55;94230.00;5117258;27;20472;-71
2022/04/22 09:35:16;;;;;;;7.07;4.75;;;;;;;16.25;46.46;94229.31;5125069;27;20026;-71
2022/04/22 09:43:45;;;;;;;9.77;5.03;;;;;;;16.47;46.37;94217.16;5124226;27;20050;-71
2022/04/22 09:46:32;;;;;;;7.25;4.95;;;;;;;16.52;45.62;94209.59;5114034;27;20024;-70
2022/04/22 09:48:58;;;;;;;9.32;5.25;;;;;;;16.63;46.49;94214.41;5095353;28;20036;-69
2022/04/22 09:51:26;;;;;;;6.03;4.95;;;;;;;16.77;47.94;94202.31;5110175;28;20020;-70
2022/04/22 09:54:05;;;;;;;8.00;4.93;;;;;;;16.94;45.36;94203.78;5111424;28;20339;-69
2022/04/22 09:56:32;;;;;;;7.85;5.07;;;;;;;16.95;45.71;94194.91;5112445;28;20023;-70
2022/04/22 09:58:57;;;;;;;6.82;5.18;;;;;;;17.02;46.29;94184.53;5111323;28;20038;-69
2022/04/22 10:01:23;;;;;;;7.43;4.80;;;;;;;17.16;45.02;94201.22;5094182;28;20024;-69
2022/04/22 10:03:49;;;;;;;8.10;5.32;;;;;;;17.19;45.30;94190.38;5112153;28;20036;-69
2022/04/22 10:06:14;;;;;;;10.75;5.90;;;;;;;17.20;46.38;94165.75;5111107;28;20020;-69
2022/04/22 10:08:40;;;;;;;10.80;6.30;;;;;;;17.35;46.13;94178.84;5094022;28;20511;-70
2022/04/22 10:11:07;;;;;;;8.43;4.63;;;;;;;17.54;44.58;94177.47;5111013;28;20059;-70
2022/04/22 10:13:42;;;;;;;7.28;4.70;;;;;;;17.44;44.15;94172.50;5110877;28;20035;-70
2022/04/22 10:16:09;;;;;;;6.03;4.80;;;;;;;17.49;44.81;94171.94;5111160;28;20031;-70
2022/04/22 10:18:34;;;;;;;8.85;4.63;;;;;;;17.40;44.51;94166.81;5112252;28;20123;-70
2022/04/22 10:21:00;;;;;;;8.18;5.20;;;;;;;17.49;44.95;94159.63;5112002;28;20103;-70
2022/04/22 10:23:26;;;;;;;8.40;4.80;;;;;;;17.50;44.40;94156.03;5110599;28;20047;-71
2022/04/22 10:25:51;;;;;;;7.57;4.90;;;;;;;17.51;44.17;94148.94;5093755;28;20027;-70
2022/04/22 10:28:17;;;;;;;9.88;4.55;;;;;;;17.56;44.92;94146.59;5112038;28;20034;-70
2022/04/22 10:30:43;;;;;;;6.60;4.78;;;;;;;17.69;44.66;94125.72;5110643;28;20412;-70
2022/04/22 10:33:10;;;;;;;5.97;5.15;;;;;;;17.81;44.43;94128.69;5093536;28;20081;-70
2022/04/22 10:35:43;;;;;;;7.38;5.13;;;;;;;17.85;44.81;94133.34;5111700;28;20144;-70
2022/04/22 10:38:32;;;;;;;7.05;4.97;;;;;;;17.93;43.10;94139.50;5110395;28;20043;-70
2022/04/22 10:41:02;;;;;;;8.93;5.20;;;;;;;17.93;44.37;94132.44;5110445;28;20036;-68
2022/04/22 10:43:28;;;;;;;7.38;5.15;;;;;;;18.05;44.27;94117.78;5093498;28;20036;-70
2022/04/22 10:48:40;;;;;;;6.68;4.45;;;;;;;18.16;42.41;94126.94;5110367;28;20423;-70
2022/04/22 10:51:08;;;;;;;6.05;4.38;;;;;;;18.24;42.27;94110.25;5111557;28;20028;-70
2022/04/22 10:53:46;;;;;;;10.85;4.40;;;;;;;18.34;42.19;94110.72;5110225;28;20092;-70
2022/04/22 10:56:30;;;;;;;8.52;4.85;;;;;;;18.49;40.56;94124.56;5111484;28;20102;-70
2022/04/22 10:59:20;;;;;;;6.03;4.60;;;;;;;18.47;42.06;94110.81;5111800;28;20059;-70
2022/04/22 11:01:49;;;;;;;8.60;4.63;;;;;;;18.48;42.58;94101.91;5111453;28;20032;-70
2022/04/22 11:04:26;;;;;;;6.60;4.30;;;;;;;18.59;40.93;94095.31;5110318;28;20564;-70
2022/04/22 11:06:52;;;;;;;9.27;4.20;;;;;;;18.63;41.10;94090.47;5093416;28;20077;-70
2022/04/22 11:09:28;;;;;;;6.95;4.38;;;;;;;18.71;41.60;94092.94;5110019;28;20039;-70
2022/04/22 11:11:54;;;;;;;9.93;4.35;;;;;;;18.83;41.04;94082.72;5111285;28;20023;-70
2022/04/22 11:14:27;;;;;;;6.38;4.20;;;;;;;18.80;39.93;94067.31;5110132;28;20028;-70
2022/04/22 11:16:54;;;;;;;8.60;4.20;;;;;;;18.91;40.42;94080.72;5110086;28;20112;-70
2022/04/22 11:19:19;;;;;;;6.53;4.40;;;;;;;18.85;40.88;94075.44;5110089;28;20032;-70
2022/04/22 11:21:52;;;;;;;10.55;4.68;;;;;;;18.89;40.16;94084.59;5111219;28;20024;-70
2022/04/22 11:24:28;;;;;;;7.68;4.50;;;;;;;18.87;39.61;94081.31;5111222;28;20051;-70
2022/04/22 11:27:11;;;;;;;12.18;4.20;;;;;;;18.86;39.89;94083.16;5109968;28;20023;-70
2022/04/22 11:29:36;;;;;;;6.18;4.35;;;;;;;18.80;40.39;94076.00;5111603;28;20036;-71
2022/04/22 11:32:18;;;;;;;10.55;4.82;;;;;;;18.87;42.46;94078.69;5109843;28;20027;-70
2022/04/22 11:35:03;;;;;;;9.43;4.72;;;;;;;19.04;42.16;94066.81;5092822;28;20039;-70
2022/04/22 11:37:29;;;;;;;9.27;4.43;;;;;;;19.14;39.85;94059.38;5110045;28;20782;-70
2022/04/22 11:39:54;;;;;;;7.13;4.22;;;;;;;19.16;39.92;94054.69;5109782;28;20114;-70
2022/04/22 11:42:20;;;;;;;9.65;5.30;;;;;;;19.11;40.24;94041.34;5110980;28;20047;-70
2022/04/22 11:45:03;;;;;;;7.60;5.22;;;;;;;19.22;40.66;94050.47;5092661;28;20524;-70
2022/04/22 11:47:29;;;;;;;7.57;4.55;;;;;;;19.23;39.73;94044.22;5109829;28;20035;-71
2022/04/22 11:49:58;;;;;;;9.60;4.60;;;;;;;19.24;40.41;94023.94;5109733;28;20107;-70
2022/04/22 11:52:26;;;;;;;6.53;4.40;;;;;;;19.30;39.59;94015.25;5109930;28;20062;-70
2022/04/22 11:54:52;;;;;;;9.00;4.90;;;;;;;19.46;39.99;94025.41;5092722;28;20125;-70
2022/04/22 11:57:18;;;;;;;12.38;4.53;;;;;;;19.42;39.56;94030.28;5109622;28;20031;-70
2022/04/22 12:05:32;;;;;;;7.70;4.70;;;;;;;19.36;39.32;94025.81;5110673;28;20028;-70
2022/04/22 12:05:34;;;;;;;7.72;4.30;;;;;;;19.30;38.98;94016.06;5114064;28;20054;-70
2022/04/22 12:08:05;;;;;;;8.48;4.03;;;;;;;19.35;38.79;94018.91;5113540;28;20453;-70
2022/04/22 12:10:32;;;;;;;9.50;4.95;;;;;;;19.28;39.34;94018.09;5114578;28;20036;-70
2022/04/22 12:13:01;;;;;;;9.60;5.03;;;;;;;19.43;39.98;94021.34;5113259;28;20024;-70
2022/04/22 12:15:26;;;;;;;10.15;5.30;;;;;;;19.45;40.23;94015.91;5113180;28;20111;-70
2022/04/22 12:17:52;;;;;;;7.82;4.70;;;;;;;19.51;38.93;94009.81;5113190;28;20489;-70
2022/04/22 12:20:17;;;;;;;7.70;4.60;;;;;;;19.38;38.55;94000.06;5114380;28;20028;-70
2022/04/22 12:22:43;;;;;;;7.32;4.72;;;;;;;19.39;38.64;93990.38;5112799;28;20028;-70
2022/04/22 12:25:13;;;;;;;10.07;4.82;;;;;;;19.40;39.80;93987.53;5113079;28;20051;-70
2022/04/22 12:27:39;;;;;;;9.23;4.75;;;;;;;19.45;39.67;93975.59;5114230;28;20038;-70
2022/04/22 12:30:12;;;;;;;6.20;5.00;;;;;;;19.47;39.57;93978.81;5112986;28;20564;-70
2022/04/22 12:32:38;;;;;;;8.02;4.97;;;;;;;19.48;39.37;93970.72;5114053;28;20405;-70
2022/04/22 12:35:13;;;;;;;7.63;4.78;;;;;;;19.50;39.81;93979.25;5112856;28;20039;-71
2022/04/22 12:37:46;;;;;;;8.52;5.97;;;;;;;19.47;40.35;93982.25;5112735;28;20031;-70